createdAt,value
2023-04-25T00:01:15.532Z,95839.28
2023-04-25T00:03:44.340Z,95859.41
2023-04-25T00:06:13.170Z,95868.88
2023-04-25T00:08:41.683Z,95828.25
2023-04-25T00:11:10.036Z,95889.47
2023-04-25T00:13:42.565Z,95853.78
2023-04-25T00:16:11.782Z,95871.13
2023-04-25T00:18:40.696Z,95862.34
2023-04-25T00:21:08.951Z,95861.31
2023-04-25T00:23:37.556Z,95864.41
2023-04-25T00:26:05.788Z,95861.97
2023-04-25T00:28:34.054Z,95855.56
2023-04-25T00:31:03.696Z,95874.72
2023-04-25T00:33:32.047Z,95917.69
2023-04-25T00:36:00.292Z,95857.72
2023-04-25T00:38:28.738Z,95867.47
2023-04-25T00:40:57.854Z,95804.03
2023-04-25T00:43:28.418Z,95878.97
2023-04-25T00:45:58.565Z,95879.72
2023-04-25T00:48:28.415Z,95860.78
2023-04-25T00:50:59.799Z,95839.66
2023-04-25T00:53:30.778Z,95831.28
2023-04-25T00:55:59.149Z,95849.84
2023-04-25T00:58:27.423Z,95878.31
2023-04-25T01:00:55.720Z,95815.66
2023-04-25T01:03:24.894Z,95848.25
2023-04-25T01:05:54.726Z,95847.91
2023-04-25T01:08:26.162Z,95804.38
2023-04-25T01:10:54.362Z,95821.91
2023-04-25T01:13:22.831Z,95838.91
2023-04-25T01:15:52.302Z,95846.25
2023-04-25T01:18:21.984Z,95874.06
2023-04-25T01:20:54.738Z,95814.72
2023-04-25T01:23:25.332Z,95829.09
2023-04-25T01:25:54.691Z,95784.75
2023-04-25T01:28:23.326Z,95819.13
2023-04-25T01:30:52.485Z,95797.03
2023-04-25T01:33:23.308Z,95822.38
2023-04-25T01:35:51.705Z,95839.09
2023-04-25T01:38:22.013Z,95823.22
2023-04-25T01:40:53.197Z,95831.88
2023-04-25T01:43:22.539Z,95809.28
2023-04-25T01:45:52.648Z,95804.03
2023-04-25T01:48:21.347Z,95839.38
2023-04-25T01:50:49.577Z,95811.53
2023-04-25T01:53:17.946Z,95833.91
2023-04-25T01:55:47.356Z,95790.94
2023-04-25T01:58:19.290Z,95829.34
2023-04-25T02:01:11.559Z,95793.22
2023-04-25T02:04:22.231Z,95846.03
2023-04-25T02:06:51.054Z,95866.63
2023-04-25T02:09:21.165Z,95832.13
2023-04-25T02:12:07.890Z,95820.84
2023-04-25T02:14:56.205Z,95814.75
2023-04-25T02:17:46.180Z,95820.97
2023-04-25T02:20:16.835Z,95865.94
2023-04-25T02:22:45.042Z,95827.19
2023-04-25T02:25:14.157Z,95841.28
2023-04-25T02:27:42.801Z,95770.94
2023-04-25T02:30:13.285Z,95804.63
2023-04-25T02:32:41.947Z,95839.63
2023-04-25T02:35:11.725Z,95749.50
2023-04-25T02:37:41.314Z,95787.28
2023-04-25T02:40:11.059Z,95815.78
2023-04-25T02:42:39.215Z,95903.84
2023-04-25T02:45:08.853Z,95826.88
2023-04-25T02:47:38.413Z,95809.91
2023-04-25T02:50:08.283Z,95798.91
2023-04-25T02:52:37.218Z,95785.16
2023-04-25T02:55:15.655Z,95793.09
2023-04-25T02:57:45.241Z,95903.13
2023-04-25T03:00:17.835Z,95789.25
2023-04-25T03:02:47.389Z,95899.47
2023-04-25T03:05:15.898Z,95794.47
2023-04-25T03:07:45.077Z,95832.13
2023-04-25T03:10:13.552Z,95758.69
2023-04-25T03:12:42.388Z,95811.47
2023-04-25T03:15:12.405Z,95805.28
2023-04-25T03:17:40.679Z,95797.94
2023-04-25T03:20:13.668Z,95788.16
2023-04-25T03:22:41.884Z,95832.47
2023-04-25T03:25:10.569Z,95811.97
2023-04-25T03:27:38.761Z,95816.06
2023-04-25T03:30:09.642Z,95853.50
2023-04-25T03:32:39.118Z,95752.00
2023-04-25T03:35:11.461Z,95823.25
2023-04-25T03:37:41.474Z,95839.63
2023-04-25T03:40:11.008Z,95838.63
2023-04-25T03:42:59.137Z,95845.19
2023-04-25T03:45:27.980Z,95781.28
2023-04-25T03:47:56.206Z,95850.94
2023-04-25T03:50:26.272Z,95669.94
2023-04-25T03:52:54.894Z,95788.44
2023-04-25T03:55:23.491Z,95821.63
2023-04-25T03:57:51.695Z,95836.69
2023-04-25T04:00:21.610Z,95843.22
2023-04-25T04:02:54.292Z,95826.22
2023-04-25T04:05:34.407Z,95803.66
2023-04-25T04:08:02.912Z,95799.06
2023-04-25T04:10:31.629Z,95813.81
2023-04-25T04:12:59.863Z,95849.59
2023-04-25T04:15:28.168Z,95815.94
2023-04-25T04:17:56.972Z,95822.97
2023-04-25T04:20:25.265Z,95940.56
2023-04-25T04:22:55.386Z,95802.56
2023-04-25T04:25:25.547Z,95817.25
2023-04-25T04:28:12.125Z,95809.91
2023-04-25T04:31:06.644Z,95822.59
2023-04-25T04:33:34.837Z,95845.81
2023-04-25T04:36:08.563Z,95788.94
2023-04-25T04:38:40.052Z,95822.00
2023-04-25T04:41:12.417Z,95828.84
2023-04-25T04:44:06.111Z,95869.19
2023-04-25T04:46:45.539Z,95852.06
2023-04-25T04:49:34.180Z,95786.19
2023-04-25T04:52:11.218Z,95864.69
2023-04-25T04:54:56.726Z,95795.50
2023-04-25T04:57:45.269Z,95791.28
2023-04-25T05:00:21.768Z,95804.34
2023-04-25T05:03:14.160Z,95830.81
2023-04-25T05:06:02.363Z,95840.00
2023-04-25T05:08:46.741Z,95820.38
2023-04-25T05:11:22.653Z,95795.72
2023-04-25T05:14:00.696Z,95829.38
2023-04-25T05:16:45.003Z,95820.56
2023-04-25T05:19:26.589Z,95771.94
2023-04-25T05:22:19.533Z,95858.63
2023-04-25T05:24:57.418Z,95869.41
2023-04-25T05:27:56.248Z,95804.34
2023-04-25T05:30:42.026Z,95857.53
2023-04-25T05:33:18.416Z,95833.47
2023-04-25T05:35:47.498Z,95763.41
2023-04-25T05:38:16.606Z,95818.44
2023-04-25T05:41:08.309Z,95840.00
2023-04-25T05:43:57.956Z,95760.22
2023-04-25T05:46:45.510Z,95836.09
2023-04-25T05:49:23.375Z,95854.88
2023-04-25T05:52:04.051Z,95842.41
2023-04-25T05:54:46.986Z,95810.34
2023-04-25T05:57:24.346Z,95816.22
2023-04-25T05:59:54.243Z,95865.41
2023-04-25T06:02:23.652Z,95798.16
2023-04-25T06:04:53.666Z,95812.94
2023-04-25T06:07:24.171Z,95812.63
2023-04-25T06:12:51.112Z,95874.53
2023-04-25T06:15:28.041Z,95841.25
2023-04-25T06:17:58.013Z,95808.56
2023-04-25T06:20:26.472Z,95857.88
2023-04-25T06:22:57.161Z,95854.84
2023-04-25T06:25:38.165Z,95865.38
2023-04-25T06:28:07.132Z,95813.47
2023-04-25T06:30:37.210Z,95861.31
2023-04-25T06:33:10.688Z,95895.94
2023-04-25T06:35:40.953Z,95838.38
2023-04-25T06:38:12.224Z,95873.03
2023-04-25T06:40:42.176Z,95859.66
2023-04-25T06:43:11.800Z,95828.94
2023-04-25T06:45:56.442Z,95887.16
2023-04-25T06:48:26.985Z,95867.31
2023-04-25T06:50:55.367Z,95827.09
2023-04-25T06:53:23.595Z,95864.09
2023-04-25T06:55:57.767Z,95874.47
2023-04-25T06:58:29.393Z,95860.94
2023-04-25T07:01:15.904Z,95910.22
2023-04-25T07:03:44.414Z,95845.78
2023-04-25T07:06:18.329Z,95847.91
2023-04-25T07:08:47.169Z,95927.16
2023-04-25T07:11:15.407Z,95909.03
2023-04-25T07:13:43.663Z,95787.72
2023-04-25T07:16:12.029Z,95841.47
2023-04-25T07:18:41.615Z,95874.38
2023-04-25T07:21:11.119Z,95852.22
2023-04-25T07:23:41.688Z,95897.56
2023-04-25T07:26:13.776Z,95874.22
2023-04-25T07:28:58.979Z,95854.09
2023-04-25T07:31:27.312Z,95887.66
2023-04-25T07:33:56.922Z,95897.28
2023-04-25T07:36:25.246Z,95906.69
2023-04-25T07:38:53.647Z,95900.22
2023-04-25T07:41:21.825Z,95902.44
2023-04-25T07:43:50.856Z,95942.41
2023-04-25T07:46:19.312Z,95890.34
2023-04-25T07:48:47.614Z,95888.31
2023-04-25T07:51:17.321Z,95883.28
2023-04-25T07:53:45.629Z,95903.25
2023-04-25T07:56:20.005Z,95992.97
2023-04-25T07:58:50.458Z,95895.88
2023-04-25T08:01:22.625Z,95856.78
2023-04-25T08:04:10.883Z,95983.84
2023-04-25T08:06:55.608Z,95927.50
2023-04-25T08:09:30.299Z,95897.03
2023-04-25T08:12:01.967Z,95915.56
2023-04-25T08:14:37.057Z,95798.81
2023-04-25T08:17:06.684Z,95960.38
2023-04-25T08:19:40.353Z,95919.34
2023-04-25T08:22:13.744Z,95814.88
2023-04-25T08:24:56.524Z,95908.50
2023-04-25T08:27:25.724Z,95934.56
2023-04-25T08:29:54.133Z,95952.91
2023-04-25T08:32:23.231Z,95952.91
2023-04-25T08:35:12.281Z,95920.00
2023-04-25T08:37:42.393Z,95922.44
2023-04-25T08:40:17.166Z,95931.78
2023-04-25T08:42:54.389Z,95939.94
2023-04-25T08:45:23.716Z,95965.00
2023-04-25T08:47:54.951Z,95942.56
2023-04-25T08:50:27.228Z,95974.34
2023-04-25T08:53:02.681Z,95796.22
2023-04-25T08:55:31.764Z,95915.53
2023-04-25T08:58:02.788Z,95947.00
2023-04-25T09:00:32.580Z,95974.66
2023-04-25T09:03:01.725Z,95944.47
2023-04-25T09:05:34.935Z,95966.28
2023-04-25T09:08:04.657Z,95976.63
2023-04-25T09:13:09.793Z,95945.72
2023-04-25T09:15:59.839Z,96012.16
2023-04-25T09:18:50.445Z,95951.50
2023-04-25T09:21:19.374Z,95977.53
2023-04-25T09:23:52.990Z,95958.19
2023-04-25T09:26:23.414Z,95915.22
2023-04-25T09:29:08.162Z,95881.72
2023-04-25T09:31:39.148Z,95947.75
2023-04-25T09:34:12.967Z,96001.16
2023-04-25T09:36:47.506Z,95930.53
2023-04-25T09:39:47.503Z,96003.53
2023-04-25T09:42:18.311Z,95938.13
2023-04-25T09:44:47.509Z,95965.53
2023-04-25T09:47:19.007Z,96004.81
2023-04-25T09:49:47.577Z,95946.84
2023-04-25T09:52:18.731Z,96013.09
2023-04-25T09:55:00.552Z,96010.00
2023-04-25T09:57:34.523Z,95915.88
2023-04-25T10:00:05.950Z,96015.91
2023-04-25T10:02:45.345Z,95917.53
2023-04-25T10:05:22.494Z,96000.03
2023-04-25T10:07:56.081Z,95992.66
2023-04-25T10:10:31.511Z,96003.25
2023-04-25T10:13:00.765Z,96019.47
2023-04-25T10:15:29.799Z,96021.44
2023-04-25T10:17:59.441Z,95974.78
2023-04-25T10:20:27.755Z,95966.00
2023-04-25T10:22:58.354Z,96018.56
2023-04-25T10:25:28.165Z,95976.16
2023-04-25T10:27:56.398Z,95996.16
2023-04-25T10:30:24.857Z,96047.59
2023-04-25T10:32:53.081Z,96004.47
2023-04-25T10:35:28.934Z,96006.91
2023-04-25T10:38:02.403Z,95975.59
2023-04-25T10:40:32.763Z,96004.22
2023-04-25T10:43:43.720Z,96006.69
2023-04-25T10:46:24.375Z,95990.00
2023-04-25T10:48:54.720Z,96000.03
2023-04-25T10:51:25.142Z,95964.94
2023-04-25T10:54:02.060Z,95866.47
2023-04-25T10:56:33.669Z,95994.13
2023-04-25T10:59:09.223Z,96003.91
2023-04-25T11:01:45.224Z,96017.25
2023-04-25T11:04:24.387Z,95952.63
2023-04-25T11:07:10.317Z,95987.13
2023-04-25T11:09:41.841Z,95987.59
2023-04-25T11:12:12.878Z,95955.72
2023-04-25T11:14:41.764Z,95938.50
2023-04-25T11:17:11.569Z,95933.66
2023-04-25T11:19:39.981Z,96014.38
2023-04-25T11:22:08.854Z,95992.41
2023-04-25T11:24:38.437Z,95991.00
2023-04-25T11:27:07.766Z,96044.28
2023-04-25T11:29:37.874Z,96022.31
2023-04-25T11:32:06.910Z,96016.50
2023-04-25T11:34:36.315Z,96002.31
2023-04-25T11:37:06.923Z,95985.88
2023-04-25T11:39:35.825Z,95990.75
2023-04-25T11:42:08.297Z,95990.75
2023-04-25T11:44:42.027Z,96044.41
2023-04-25T11:47:10.730Z,95995.03
2023-04-25T11:49:39.204Z,96002.09
2023-04-25T11:52:09.868Z,95971.69
2023-04-25T11:54:39.003Z,96044.59
2023-04-25T11:57:07.503Z,96046.94
2023-04-25T11:59:36.040Z,95956.84
2023-04-25T12:02:08.025Z,96043.44
2023-04-25T12:04:37.100Z,96041.13
2023-04-25T12:07:06.310Z,96026.16
2023-04-25T12:10:01.291Z,95987.22
2023-04-25T12:12:34.589Z,96035.97
2023-04-25T12:15:13.072Z,96053.44
2023-04-25T12:17:43.859Z,96022.31
2023-04-25T12:20:15.184Z,96085.91
2023-04-25T12:22:46.575Z,96070.72
2023-04-25T12:25:15.084Z,96052.47
2023-04-25T12:27:44.966Z,96032.00
2023-04-25T12:30:13.605Z,96008.38
2023-04-25T12:32:43.232Z,96043.38
2023-04-25T12:35:11.719Z,96037.81
2023-04-25T12:37:39.972Z,96072.16
2023-04-25T12:40:09.873Z,96068.28
2023-04-25T12:42:38.134Z,96059.47
2023-04-25T12:45:07.547Z,96065.13
2023-04-25T12:47:36.311Z,96085.00
2023-04-25T12:50:07.134Z,96031.63
2023-04-25T12:52:35.653Z,96024.09
2023-04-25T12:55:04.056Z,96038.53
2023-04-25T12:57:32.250Z,95984.56
2023-04-25T13:00:00.518Z,96048.78
2023-04-25T13:02:28.875Z,96097.41
2023-04-25T13:04:57.173Z,96047.16
2023-04-25T13:07:26.893Z,95930.13
2023-04-25T13:09:55.131Z,96034.09
2023-04-25T13:12:23.330Z,96071.66
2023-04-25T13:14:51.534Z,96073.00
2023-04-25T13:17:19.775Z,96104.81
2023-04-25T13:19:48.032Z,96040.16
2023-04-25T13:22:17.906Z,96087.56
2023-04-25T13:24:47.619Z,96119.31
2023-04-25T13:27:16.190Z,96082.06
2023-04-25T13:29:44.444Z,96097.91
2023-04-25T13:32:12.799Z,96073.94
2023-04-25T13:34:41.025Z,96091.25
2023-04-25T13:37:09.242Z,96070.63
2023-04-25T13:39:37.453Z,96072.75
2023-04-25T13:42:09.077Z,96087.47
2023-04-25T13:44:37.233Z,96145.81
2023-04-25T13:47:06.192Z,96126.19
2023-04-25T13:49:34.409Z,96123.31
2023-04-25T13:52:02.622Z,96135.81
2023-04-25T13:54:30.781Z,96148.41
2023-04-25T13:57:00.169Z,96149.81
2023-04-25T13:59:29.878Z,96067.81
2023-04-25T14:01:58.113Z,96155.50
2023-04-25T14:04:28.633Z,96143.41
2023-04-25T14:06:57.358Z,96129.56
2023-04-25T14:09:26.650Z,96142.47
2023-04-25T14:11:55.409Z,96170.56
2023-04-25T14:14:24.426Z,96179.06
2023-04-25T14:16:55.891Z,96176.34
2023-04-25T14:19:24.242Z,96157.22
2023-04-25T14:21:52.703Z,96135.47
2023-04-25T14:24:21.542Z,96124.00
2023-04-25T14:26:49.812Z,96125.53
2023-04-25T14:29:17.983Z,96198.63
2023-04-25T14:31:46.330Z,96424.50
2023-04-25T14:34:16.055Z,96156.50
2023-04-25T14:36:44.295Z,96164.19
2023-04-25T14:39:13.440Z,96239.00
2023-04-25T14:41:41.624Z,96135.41
2023-04-25T14:44:09.784Z,96237.53
2023-04-25T14:46:38.540Z,96209.56
2023-04-25T14:49:08.281Z,96152.31
2023-04-25T14:51:38.242Z,96182.91
2023-04-25T14:54:07.242Z,96207.75
2023-04-25T14:56:35.763Z,96228.28
2023-04-25T14:59:03.997Z,96200.66
2023-04-25T15:01:32.726Z,96211.91
2023-04-25T15:04:01.430Z,96240.84
2023-04-25T15:06:31.397Z,96181.59
2023-04-25T15:09:00.976Z,96208.72
2023-04-25T15:11:29.257Z,96309.34
2023-04-25T15:13:57.454Z,96151.97
2023-04-25T15:16:25.884Z,96159.94
2023-04-25T15:18:54.092Z,96194.25
2023-04-25T15:21:22.566Z,96240.53
2023-04-25T15:23:51.229Z,96174.59
2023-04-25T15:26:20.990Z,96210.91
2023-04-25T15:28:49.483Z,96206.47
2023-04-25T15:31:18.361Z,96211.75
2023-04-25T15:33:46.657Z,96208.13
2023-04-25T15:36:17.310Z,96245.16
2023-04-25T15:38:45.526Z,96167.44
2023-04-25T15:41:14.584Z,96217.34
2023-04-25T15:43:44.318Z,96198.97
2023-04-25T15:46:12.610Z,96227.81
2023-04-25T15:48:40.850Z,96246.13
2023-04-25T15:51:09.053Z,96231.91
2023-04-25T15:53:37.379Z,96213.84
2023-04-25T15:56:06.258Z,96205.78
2023-04-25T15:58:36.011Z,96232.69
2023-04-25T16:01:05.959Z,96225.16
2023-04-25T16:03:36.322Z,96224.84
2023-04-25T16:06:06.076Z,96202.09
2023-04-25T16:08:35.878Z,96229.16
2023-04-25T16:11:05.341Z,96221.50
2023-04-25T16:13:35.246Z,96225.06
2023-04-25T16:16:05.416Z,96196.19
2023-04-25T16:18:33.644Z,96210.13
2023-04-25T16:21:01.849Z,96237.50
2023-04-25T16:23:30.193Z,96213.00
2023-04-25T16:25:58.550Z,96233.22
2023-04-25T16:28:27.496Z,96227.19
2023-04-25T16:30:55.684Z,96238.91
2023-04-25T16:33:25.489Z,96273.88
2023-04-25T16:35:57.277Z,96213.84
2023-04-25T16:38:25.475Z,96242.06
2023-04-25T16:40:54.468Z,96234.00
2023-04-25T16:43:22.912Z,96220.09
2023-04-25T16:45:51.113Z,96248.94
2023-04-25T16:48:20.851Z,96258.25
2023-04-25T16:50:50.698Z,96202.47
2023-04-25T16:53:18.986Z,96235.09
2023-04-25T16:55:47.372Z,96225.63
2023-04-25T16:58:15.542Z,96226.41
2023-04-25T17:00:43.909Z,96142.41
2023-04-25T17:03:12.826Z,96216.75
2023-04-25T17:05:41.099Z,96236.69
2023-04-25T17:08:10.689Z,96292.56
2023-04-25T17:10:38.962Z,96247.44
2023-04-25T17:13:07.227Z,96271.72
2023-04-25T17:15:35.952Z,96258.06
2023-04-25T17:18:04.341Z,96239.31
2023-04-25T17:20:33.101Z,96211.78
2023-04-25T17:23:01.364Z,96189.56
2023-04-25T17:25:31.516Z,96280.13
2023-04-25T17:27:59.752Z,96299.03
2023-04-25T17:30:28.111Z,96260.72
2023-04-25T17:32:57.525Z,96233.09
2023-04-25T17:35:26.111Z,96267.81
2023-04-25T17:37:54.308Z,96244.47
2023-04-25T17:40:22.568Z,96277.97
2023-04-25T17:42:52.176Z,96307.91
2023-04-25T17:45:20.451Z,96291.22
2023-04-25T17:47:48.717Z,95822.03
2023-04-25T17:50:17.848Z,96276.13
2023-04-25T17:52:48.292Z,96267.56
2023-04-25T17:55:16.688Z,96289.91
2023-04-25T17:57:45.538Z,96264.00
2023-04-25T18:00:18.564Z,96291.44
2023-04-25T18:02:48.543Z,96293.84
2023-04-25T18:05:17.774Z,96303.69
2023-04-25T18:07:46.010Z,96285.91
2023-04-25T18:10:20.496Z,96287.44
2023-04-25T18:12:50.409Z,96295.50
2023-04-25T18:15:21.958Z,96188.97
2023-04-25T18:17:50.344Z,96289.19
2023-04-25T18:20:19.491Z,96296.81
2023-04-25T18:22:48.133Z,96258.56
2023-04-25T18:25:16.403Z,96243.34
2023-04-25T18:27:45.829Z,96318.69
2023-04-25T18:30:15.055Z,96349.22
2023-04-25T18:32:44.928Z,96333.44
2023-04-25T18:35:13.699Z,96349.88
2023-04-25T18:37:42.549Z,96337.25
2023-04-25T18:40:14.118Z,96372.81
2023-04-25T18:42:43.100Z,96206.56
2023-04-25T18:45:12.786Z,96271.44
2023-04-25T18:47:41.109Z,96324.97
2023-04-25T18:50:12.856Z,96303.56
2023-04-25T18:52:41.828Z,96335.03
2023-04-25T18:55:11.266Z,96433.22
2023-04-25T18:57:39.740Z,96345.00
2023-04-25T19:00:11.248Z,96332.56
2023-04-25T19:02:39.784Z,96191.41
2023-04-25T19:05:11.251Z,96377.19
2023-04-25T19:07:40.525Z,96396.31
2023-04-25T19:10:10.057Z,96378.09
2023-04-25T19:12:38.547Z,96374.16
2023-04-25T19:15:09.820Z,96354.16
2023-04-25T19:17:38.102Z,96315.06
2023-04-25T19:20:08.923Z,96413.25
2023-04-25T19:22:41.682Z,96329.88
2023-04-25T19:25:11.402Z,96718.56
2023-04-25T19:27:40.246Z,96369.03
2023-04-25T19:30:10.765Z,96382.72
2023-04-25T19:32:39.489Z,96432.69
2023-04-25T19:35:11.839Z,96411.94
2023-04-25T19:37:46.427Z,96341.56
2023-04-25T19:40:16.275Z,96458.81
2023-04-25T19:42:45.108Z,96327.44
2023-04-25T19:45:13.703Z,96298.91
2023-04-25T19:47:42.663Z,96405.44
2023-04-25T19:50:12.000Z,96362.19
2023-04-25T19:52:41.722Z,96528.00
2023-04-25T19:55:11.521Z,96398.00
2023-04-25T19:57:39.788Z,96434.72
2023-04-25T20:00:12.816Z,96389.09
2023-04-25T20:02:41.602Z,96433.06
2023-04-25T20:05:10.687Z,96264.78
2023-04-25T20:07:39.425Z,96400.53
2023-04-25T20:10:13.645Z,96435.91
2023-04-25T20:12:42.266Z,96408.69
2023-04-25T20:15:12.212Z,96385.69
2023-04-25T20:17:41.639Z,96343.88
2023-04-25T20:20:11.505Z,96497.25
2023-04-25T20:22:40.693Z,96365.28
2023-04-25T20:25:16.786Z,96412.94
2023-04-25T20:27:45.357Z,96352.31
2023-04-25T20:30:15.494Z,96383.59
2023-04-25T20:32:43.842Z,96437.94
2023-04-25T20:35:13.692Z,96429.75
2023-04-25T20:37:42.279Z,96443.75
2023-04-25T20:40:11.829Z,96421.97
2023-04-25T20:42:41.682Z,96437.03
2023-04-25T20:45:13.635Z,96439.56
2023-04-25T20:47:42.855Z,96413.44
2023-04-25T20:50:12.196Z,96414.28
2023-04-25T20:52:40.475Z,96450.19
2023-04-25T20:55:10.902Z,96453.91
2023-04-25T20:57:39.307Z,96430.56
2023-04-25T21:00:18.654Z,96391.09
2023-04-25T21:02:47.802Z,96442.69
2023-04-25T21:05:16.308Z,96479.91
2023-04-25T21:07:45.569Z,96479.38
2023-04-25T21:10:14.373Z,96418.44
2023-04-25T21:12:44.088Z,96413.88
2023-04-25T21:15:14.557Z,96423.16
2023-04-25T21:17:43.273Z,96399.97
2023-04-25T21:20:12.467Z,96412.94
2023-04-25T21:22:47.786Z,96438.81
2023-04-25T21:25:20.274Z,96459.75
2023-04-25T21:27:49.799Z,96401.53
2023-04-25T21:30:23.353Z,96425.34
2023-04-25T21:32:53.198Z,96442.69
2023-04-25T21:35:23.047Z,96432.09
2023-04-25T21:37:51.607Z,96464.16
2023-04-25T21:40:20.060Z,96407.44
2023-04-25T21:42:51.385Z,96465.03
2023-04-25T21:45:22.045Z,96456.66
2023-04-25T21:47:51.087Z,96471.47
2023-04-25T21:50:19.619Z,96395.25
2023-04-25T21:52:48.216Z,96490.06
2023-04-25T21:55:16.867Z,96473.00
2023-04-25T21:57:45.089Z,96459.00
2023-04-25T22:00:24.399Z,96467.66
2023-04-25T22:02:55.603Z,96378.34
2023-04-25T22:05:27.386Z,96496.38
2023-04-25T22:10:49.503Z,96509.75
2023-04-25T22:13:17.701Z,96446.66
2023-04-25T22:15:45.934Z,96500.94
2023-04-25T22:18:16.310Z,96461.47
2023-04-25T22:20:45.054Z,96468.22
2023-04-25T22:23:13.758Z,96494.75
2023-04-25T22:25:42.397Z,96493.34
2023-04-25T22:28:12.671Z,96500.50
2023-04-25T22:30:40.956Z,96459.00
2023-04-25T22:33:09.274Z,96476.88
2023-04-25T22:35:38.848Z,96479.63
2023-04-25T22:38:07.112Z,96480.69
2023-04-25T22:40:35.383Z,96512.06
2023-04-25T22:43:03.757Z,96509.88
2023-04-25T22:45:32.566Z,96524.28
2023-04-25T22:48:00.970Z,96545.28
2023-04-25T22:50:29.160Z,96515.38
2023-04-25T22:52:58.890Z,96520.44
2023-04-25T22:55:27.857Z,96413.28
2023-04-25T22:57:56.873Z,96462.88
2023-04-25T23:00:26.270Z,96525.53
2023-04-25T23:02:54.902Z,96517.94
2023-04-25T23:05:24.414Z,96449.09
2023-04-25T23:07:52.805Z,96431.78
2023-04-25T23:10:22.470Z,96519.72
2023-04-25T23:12:50.685Z,96508.84
2023-04-25T23:15:20.622Z,96503.50
2023-04-25T23:17:48.952Z,96531.41
2023-04-25T23:20:17.668Z,96524.59
2023-04-25T23:22:45.930Z,96534.22
2023-04-25T23:25:14.944Z,96493.28
2023-04-25T23:27:45.038Z,96522.94
2023-04-25T23:30:14.430Z,96548.75
2023-04-25T23:32:43.125Z,96519.09
2023-04-25T23:35:11.920Z,96526.44
2023-04-25T23:37:41.371Z,96509.41
2023-04-25T23:40:12.115Z,96486.06
2023-04-25T23:42:42.309Z,96521.75
2023-04-25T23:45:14.278Z,96530.53
2023-04-25T23:47:43.143Z,96536.59
2023-04-25T23:50:12.371Z,96492.88
2023-04-25T23:52:41.225Z,96593.41
2023-04-25T23:55:10.714Z,96551.59
2023-04-25T23:57:38.912Z,96537.41
